地図

経路データ

SID SEASON NUMBER BASIN SUBBASIN NAME ISO_TIME NATURE LAT LON WMO_WIND WMO_PRES WMO_AGENCY TRACK_TYPE DIST2LAND LANDFALL IFLAG USA_AGENCY USA_ATCF_ID USA_LAT USA_LON USA_RECORD USA_STATUS USA_WIND USA_PRES USA_SSHS USA_R34_NE USA_R34_SE USA_R34_SW USA_R34_NW USA_R50_NE USA_R50_SE USA_R50_SW USA_R50_NW USA_R64_NE USA_R64_SE USA_R64_SW USA_R64_NW USA_POCI USA_ROCI USA_RMW USA_EYE TOKYO_LAT TOKYO_LON TOKYO_GRADE TOKYO_WIND TOKYO_PRES TOKYO_R50_DIR TOKYO_R50_LONG TOKYO_R50_SHORT TOKYO_R30_DIR TOKYO_R30_LONG TOKYO_R30_SHORT TOKYO_LAND CMA_LAT CMA_LON CMA_CAT CMA_WIND CMA_PRES HKO_LAT HKO_LON HKO_CAT HKO_WIND HKO_PRES NEWDELHI_LAT NEWDELHI_LON NEWDELHI_GRADE NEWDELHI_WIND NEWDELHI_PRES NEWDELHI_CI NEWDELHI_DP NEWDELHI_POCI REUNION_LAT REUNION_LON REUNION_TYPE REUNION_WIND REUNION_PRES REUNION_TNUM REUNION_CI REUNION_RMW REUNION_R34_NE REUNION_R34_SE REUNION_R34_SW REUNION_R34_NW REUNION_R50_NE REUNION_R50_SE REUNION_R50_SW REUNION_R50_NW REUNION_R64_NE REUNION_R64_SE REUNION_R64_SW REUNION_R64_NW BOM_LAT BOM_LON BOM_TYPE BOM_WIND BOM_PRES BOM_TNUM BOM_CI BOM_RMW BOM_R34_NE BOM_R34_SE BOM_R34_SW BOM_R34_NW BOM_R50_NE BOM_R50_SE BOM_R50_SW BOM_R50_NW BOM_R64_NE BOM_R64_SE BOM_R64_SW BOM_R64_NW BOM_ROCI BOM_POCI BOM_EYE BOM_POS_METHOD BOM_PRES_METHOD NADI_LAT NADI_LON NADI_CAT NADI_WIND NADI_PRES WELLINGTON_LAT WELLINGTON_LON WELLINGTON_WIND WELLINGTON_PRES DS824_LAT DS824_LON DS824_STAGE DS824_WIND DS824_PRES TD9636_LAT TD9636_LON TD9636_STAGE TD9636_WIND TD9636_PRES TD9635_LAT TD9635_LON TD9635_WIND TD9635_PRES TD9635_ROCI NEUMANN_LAT NEUMANN_LON NEUMANN_CLASS NEUMANN_WIND NEUMANN_PRES MLC_LAT MLC_LON MLC_CLASS MLC_WIND MLC_PRES USA_GUST BOM_GUST BOM_GUST_PER REUNION_GUST REUNION_GUST_PER USA_SEAHGT USA_SEARAD_NE USA_SEARAD_SE USA_SEARAD_SW USA_SEARAD_NW STORM_SPEED STORM_DIR
1867270N36291 1867 22 NA NA NOT_NAMED 1867-09-27 00:00:00 SS 35.5000 -69.5000 main 541 510 _____________O -1 35.5000 -69.5000 SS 40 10 224
1867270N36291 1867 22 NA NA NOT_NAMED 1867-09-27 03:00:00 SS 35.1504 -69.9183 main 510 483 _____________P -1 35.1504 -69.9183 SS 42 10 223
1867270N36291 1867 22 NA NA NOT_NAMED 1867-09-27 06:00:00 SS 34.8000 -70.3000 main 483 467 _____________O -1 34.8000 -70.3000 SS 45 9 221
1867270N36291 1867 22 NA NA NOT_NAMED 1867-09-27 09:00:00 SS 34.4621 -70.6348 main 467 446 _____________P -1 34.4621 -70.6348 SS 47 8 224
1867270N36291 1867 22 NA NA NOT_NAMED 1867-09-27 12:00:00 SS 34.2000 -71.0000 main 446 418 _____________O -1 34.2000 -71.0000 SS 50 8 241
1867270N36291 1867 22 NA NA NOT_NAMED 1867-09-27 15:00:00 SS 34.0700 -71.4771 main 410 376 _____________P -1 34.0700 -71.4771 SS 55 9 256
1867270N36291 1867 22 NA NA NOT_NAMED 1867-09-27 18:00:00 SS 34.0000 -72.0000 main 376 345 _____________O -1 34.0000 -72.0000 SS 60 9 258
1867270N36291 1867 22 NA NA NOT_NAMED 1867-09-27 21:00:00 SS 33.8924 -72.5075 main 345 317 _____________P -1 33.8924 -72.5075 SS 60 9 256
1867270N36291 1867 22 NA NA NOT_NAMED 1867-09-28 00:00:00 TS 33.8000 -73.0000 main 317 289 _____________O -1 33.8000 -73.0000 TS 60 8 258
1867270N36291 1867 22 NA NA NOT_NAMED 1867-09-28 03:00:00 TS 33.7126 -73.4951 main 289 257 _____________P -1 33.7126 -73.4951 TS 62 8 262
1867270N36291 1867 22 NA NA NOT_NAMED 1867-09-28 06:00:00 TS 33.7000 -73.9000 main 257 228 _____________O -1 33.7000 -73.9000 HU 65 6 277
1867270N36291 1867 22 NA NA NOT_NAMED 1867-09-28 09:00:00 TS 33.7823 -74.1747 main 228 208 _____________P -1 33.7823 -74.1747 HU 65 4 312
1867270N36291 1867 22 NA NA NOT_NAMED 1867-09-28 12:00:00 TS 34.0000 -74.3000 main 208 185 _____________O -1 34.0000 -74.3000 HU 65 6 345
1867270N36291 1867 22 NA NA NOT_NAMED 1867-09-28 15:00:00 TS 34.3694 -74.3692 main 178 161 _____________P -1 34.3694 -74.3692 HU 65 8 6
1867270N36291 1867 22 NA NA NOT_NAMED 1867-09-28 18:00:00 TS 34.8000 -74.2000 main 162 161 _____________O -1 34.8000 -74.2000 HU 65 10 35
1867270N36291 1867 22 NA NA NOT_NAMED 1867-09-28 21:00:00 TS 35.1957 -73.6689 main 175 175 _____________P -1 35.1957 -73.6689 HU 67 12 54
1867270N36291 1867 22 NA NA NOT_NAMED 1867-09-29 00:00:00 TS 35.5000 -73.0000 main 227 227 _____________O -1 35.5000 -73.0000 HU 70 11 65
1867270N36291 1867 22 NA NA NOT_NAMED 1867-09-29 03:00:00 TS 35.6446 -72.4842 main 271 271 _____________P -1 35.6446 -72.4842 HU 70 8 76
1867270N36291 1867 22 NA NA NOT_NAMED 1867-09-29 06:00:00 TS 35.7000 -72.0000 main 315 315 _____________O -1 35.7000 -72.0000 HU 70 8 83
1867270N36291 1867 22 NA NA NOT_NAMED 1867-09-29 09:00:00 TS 35.7417 -71.5368 main 360 360 _____________P -1 35.7417 -71.5368 HU 70 8 83
1867270N36291 1867 22 NA NA NOT_NAMED 1867-09-29 12:00:00 TS 35.8000 -71.0000 main 404 404 _____________O -1 35.8000 -71.0000 HU 70 10 79
1867270N36291 1867 22 NA NA NOT_NAMED 1867-09-29 15:00:00 TS 35.9352 -70.2877 main 467 467 _____________P -1 35.9352 -70.2877 HU 70 12 76
1867270N36291 1867 22 NA NA NOT_NAMED 1867-09-29 18:00:00 TS 36.1000 -69.5000 main 539 539 _____________O -1 36.1000 -69.5000 HU 70 13 76
1867270N36291 1867 22 NA NA NOT_NAMED 1867-09-29 21:00:00 TS 36.2420 -68.7495 main 611 604 _____________P -1 36.2420 -68.7495 HU 72 12 76
1867270N36291 1867 22 NA NA NOT_NAMED 1867-09-30 00:00:00 TS 36.4000 -68.0000 main 613 610 _____________O -1 36.4000 -68.0000 HU 75 13 74
1867270N36291 1867 22 NA NA NOT_NAMED 1867-09-30 03:00:00 TS 36.5920 -67.2498 main 616 613 _____________P -1 36.5920 -67.2498 HU 75 13 72
1867270N36291 1867 22 NA NA NOT_NAMED 1867-09-30 06:00:00 TS 36.8000 -66.5000 main 622 621 _____________O -1 36.8000 -66.5000 HU 75 11 72
1867270N36291 1867 22 NA NA NOT_NAMED 1867-09-30 09:00:00 TS 36.9355 -65.8946 main 639 634 _____________P -1 36.9355 -65.8946 HU 77 13 72
1867270N36291 1867 22 NA NA NOT_NAMED 1867-09-30 12:00:00 TS 37.2000 -65.0000 main 658 658 _____________O -1 37.2000 -65.0000 HU 80 22 68
1867270N36291 1867 22 NA NA NOT_NAMED 1867-09-30 15:00:00 TS 37.7546 -63.2939 main 656 646 _____________P -1 37.7546 -63.2939 HU 80 30 67
1867270N36291 1867 22 NA NA NOT_NAMED 1867-09-30 18:00:00 TS 38.4000 -61.5000 main 650 644 _____________O -1 38.4000 -61.5000 HU 80 24 64
1867270N36291 1867 22 NA NA NOT_NAMED 1867-09-30 21:00:00 TS 38.8363 -60.5067 main 658 642 _____________P -1 38.8363 -60.5067 HU 77 19 55
1867270N36291 1867 22 NA NA NOT_NAMED 1867-10-01 00:00:00 TS 39.5000 -59.5000 main 638 581 _____________O -1 39.5000 -59.5000 HU 75 29 51
1867270N36291 1867 22 NA NA NOT_NAMED 1867-10-01 03:00:00 TS 40.6891 -57.5931 main 575 533 _____________P -1 40.6891 -57.5931 HU 70 39 48
1867270N36291 1867 22 NA NA NOT_NAMED 1867-10-01 06:00:00 TS 42.1000 -55.7000 main 522 364 _____________O -1 42.1000 -55.7000 HU 65 36 39
1867270N36291 1867 22 NA NA NOT_NAMED 1867-10-01 09:00:00 TS 43.4707 -54.5860 main 353 213 _____________P -1 43.4707 -54.5860 HU 57 30 25
1867270N36291 1867 22 NA NA NOT_NAMED 1867-10-01 12:00:00 TS 44.8000 -54.0000 main 202 _____________O -1 44.8000 -54.0000 TS 50 28 17

IBTrACS Databaseについて

本データベースは、米国NOAAが公開する1842年以降の世界の熱帯低気圧のベストトラックデータアーカイブInternational Best Track Archive for Climate Stewardship (IBTrACS)を、ウェブで閲覧しやすい形式に変換したものです。

最終更新日:2021-12-03